sensor_id;sensor_type;location;lat;lon;timestamp;temperature;humidity
10089;DHT22;51898;49.864;8.550;2023-02-01T00:01:12;5.40;99.90
10089;DHT22;51898;49.864;8.550;2023-02-01T00:04:13;5.40;99.90
10089;DHT22;51898;49.864;8.550;2023-02-01T00:07:15;5.30;99.90
10089;DHT22;51898;49.864;8.550;2023-02-01T00:10:17;5.30;99.90
10089;DHT22;51898;49.864;8.550;2023-02-01T00:13:19;5.30;99.90
10089;DHT22;51898;49.864;8.550;2023-02-01T00:16:26;5.30;99.90
10089;DHT22;51898;49.864;8.550;2023-02-01T00:19:28;5.30;99.90
10089;DHT22;51898;49.864;8.550;2023-02-01T00:22:29;5.30;99.90
10089;DHT22;51898;49.864;8.550;2023-02-01T00:25:31;5.30;99.90
10089;DHT22;51898;49.864;8.550;2023-02-01T00:28:33;5.30;99.90
10089;DHT22;51898;49.864;8.550;2023-02-01T00:31:35;5.20;99.90
10089;DHT22;51898;49.864;8.550;2023-02-01T00:34:37;5.20;99.90
10089;DHT22;51898;49.864;8.550;2023-02-01T00:37:38;5.20;99.90
10089;DHT22;51898;49.864;8.550;2023-02-01T00:40:40;5.30;99.90
10089;DHT22;51898;49.864;8.550;2023-02-01T00:43:42;5.30;99.90
10089;DHT22;51898;49.864;8.550;2023-02-01T00:46:44;5.30;99.90
10089;DHT22;51898;49.864;8.550;2023-02-01T00:49:46;5.30;99.90
10089;DHT22;51898;49.864;8.550;2023-02-01T00:52:47;5.30;99.90
10089;DHT22;51898;49.864;8.550;2023-02-01T00:55:49;5.20;99.90
10089;DHT22;51898;49.864;8.550;2023-02-01T00:58:50;5.20;99.90
10089;DHT22;51898;49.864;8.550;2023-02-01T01:01:52;5.20;99.90
10089;DHT22;51898;49.864;8.550;2023-02-01T01:04:54;5.20;99.90
10089;DHT22;51898;49.864;8.550;2023-02-01T01:07:55;5.20;99.90
10089;DHT22;51898;49.864;8.550;2023-02-01T01:10:57;5.30;99.90
10089;DHT22;51898;49.864;8.550;2023-02-01T01:13:59;5.30;99.90
10089;DHT22;51898;49.864;8.550;2023-02-01T01:17:01;5.30;99.90
10089;DHT22;51898;49.864;8.550;2023-02-01T01:20:03;5.40;99.90
10089;DHT22;51898;49.864;8.550;2023-02-01T01:23:07;5.40;99.90
10089;DHT22;51898;49.864;8.550;2023-02-01T01:26:11;5.40;99.90
10089;DHT22;51898;49.864;8.550;2023-02-01T01:29:14;5.50;99.90
10089;DHT22;51898;49.864;8.550;2023-02-01T01:32:16;5.50;99.90
10089;DHT22;51898;49.864;8.550;2023-02-01T01:35:17;5.40;99.90
10089;DHT22;51898;49.864;8.550;2023-02-01T01:38:19;5.40;99.90
10089;DHT22;51898;49.864;8.550;2023-02-01T01:41:23;5.50;99.90
10089;DHT22;51898;49.864;8.550;2023-02-01T01:48:28;5.50;99.90
10089;DHT22;51898;49.864;8.550;2023-02-01T01:51:32;5.50;99.90
10089;DHT22;51898;49.864;8.550;2023-02-01T01:54:45;5.50;99.90
10089;DHT22;51898;49.864;8.550;2023-02-01T01:57:55;5.40;99.90
10089;DHT22;51898;49.864;8.550;2023-02-01T02:00:59;5.40;99.90
10089;DHT22;51898;49.864;8.550;2023-02-01T02:04:01;5.40;99.90
10089;DHT22;51898;49.864;8.550;2023-02-01T02:07:13;5.40;99.90
10089;DHT22;51898;49.864;8.550;2023-02-01T02:10:16;5.40;99.90
10089;DHT22;51898;49.864;8.550;2023-02-01T02:13:19;5.40;99.90
10089;DHT22;51898;49.864;8.550;2023-02-01T02:20:22;5.50;99.90
10089;DHT22;51898;49.864;8.550;2023-02-01T02:31:04;5.50;99.90
10089;DHT22;51898;49.864;8.550;2023-02-01T02:34:44;5.50;99.90
10089;DHT22;51898;49.864;8.550;2023-02-01T02:38:15;5.50;99.90
10089;DHT22;51898;49.864;8.550;2023-02-01T02:41:44;5.50;99.90
10089;DHT22;51898;49.864;8.550;2023-02-01T02:45:09;5.50;99.90
10089;DHT22;51898;49.864;8.550;2023-02-01T02:48:38;5.50;99.90
10089;DHT22;51898;49.864;8.550;2023-02-01T02:51:54;5.50;99.90
10089;DHT22;51898;49.864;8.550;2023-02-01T02:55:15;5.60;99.90
10089;DHT22;51898;49.864;8.550;2023-02-01T02:58:19;5.50;99.90
10089;DHT22;51898;49.864;8.550;2023-02-01T03:01:41;5.50;99.90
10089;DHT22;51898;49.864;8.550;2023-02-01T03:05:02;5.50;99.90
10089;DHT22;51898;49.864;8.550;2023-02-01T03:08:08;5.50;99.90
10089;DHT22;51898;49.864;8.550;2023-02-01T03:11:13;5.40;99.90
10089;DHT22;51898;49.864;8.550;2023-02-01T03:14:17;5.40;99.90
10089;DHT22;51898;49.864;8.550;2023-02-01T03:17:24;5.40;99.90
10089;DHT22;51898;49.864;8.550;2023-02-01T03:20:29;5.40;99.90
10089;DHT22;51898;49.864;8.550;2023-02-01T03:23:33;5.50;99.90
10089;DHT22;51898;49.864;8.550;2023-02-01T03:26:38;5.50;99.90
10089;DHT22;51898;49.864;8.550;2023-02-01T03:29:48;5.50;99.90
10089;DHT22;51898;49.864;8.550;2023-02-01T03:32:55;5.50;99.90
10089;DHT22;51898;49.864;8.550;2023-02-01T03:36:18;5.50;99.90
10089;DHT22;51898;49.864;8.550;2023-02-01T03:39:29;5.50;99.90
10089;DHT22;51898;49.864;8.550;2023-02-01T03:42:37;5.50;99.90
10089;DHT22;51898;49.864;8.550;2023-02-01T03:45:44;5.50;99.90
10089;DHT22;51898;49.864;8.550;2023-02-01T03:48:48;5.40;99.90
10089;DHT22;51898;49.864;8.550;2023-02-01T03:51:51;5.40;99.90
10089;DHT22;51898;49.864;8.550;2023-02-01T03:54:55;5.40;99.90
10089;DHT22;51898;49.864;8.550;2023-02-01T03:58:02;5.40;99.90
10089;DHT22;51898;49.864;8.550;2023-02-01T04:01:07;5.40;99.90
10089;DHT22;51898;49.864;8.550;2023-02-01T04:04:09;5.40;99.90
10089;DHT22;51898;49.864;8.550;2023-02-01T04:07:11;5.40;99.90
10089;DHT22;51898;49.864;8.550;2023-02-01T04:10:15;5.40;99.90
10089;DHT22;51898;49.864;8.550;2023-02-01T04:13:20;5.40;99.90
10089;DHT22;51898;49.864;8.550;2023-02-01T04:16:21;5.40;99.90
10089;DHT22;51898;49.864;8.550;2023-02-01T04:19:23;5.40;99.90
10089;DHT22;51898;49.864;8.550;2023-02-01T04:22:25;5.40;99.90
10089;DHT22;51898;49.864;8.550;2023-02-01T04:25:27;5.40;99.90
10089;DHT22;51898;49.864;8.550;2023-02-01T04:28:28;5.40;99.90
10089;DHT22;51898;49.864;8.550;2023-02-01T04:31:30;5.40;99.90
10089;DHT22;51898;49.864;8.550;2023-02-01T04:34:32;5.40;99.90
10089;DHT22;51898;49.864;8.550;2023-02-01T04:37:34;5.40;99.90
10089;DHT22;51898;49.864;8.550;2023-02-01T04:40:36;5.40;99.90
10089;DHT22;51898;49.864;8.550;2023-02-01T04:43:39;5.40;99.90
10089;DHT22;51898;49.864;8.550;2023-02-01T04:46:41;5.40;99.90
10089;DHT22;51898;49.864;8.550;2023-02-01T04:49:43;5.40;99.90
10089;DHT22;51898;49.864;8.550;2023-02-01T04:52:45;5.40;99.90
10089;DHT22;51898;49.864;8.550;2023-02-01T04:55:49;5.40;99.90
10089;DHT22;51898;49.864;8.550;2023-02-01T04:58:51;5.40;99.90
10089;DHT22;51898;49.864;8.550;2023-02-01T05:01:53;5.40;99.90
10089;DHT22;51898;49.864;8.550;2023-02-01T05:04:54;5.50;99.90
10089;DHT22;51898;49.864;8.550;2023-02-01T05:07:57;5.40;99.90
10089;DHT22;51898;49.864;8.550;2023-02-01T05:10:59;5.50;99.90
10089;DHT22;51898;49.864;8.550;2023-02-01T05:14:03;5.50;99.90
10089;DHT22;51898;49.864;8.550;2023-02-01T05:17:05;5.50;99.90
10089;DHT22;51898;49.864;8.550;2023-02-01T05:20:08;5.50;99.90
10089;DHT22;51898;49.864;8.550;2023-02-01T05:23:10;5.50;99.90
10089;DHT22;51898;49.864;8.550;2023-02-01T05:26:12;5.50;99.90
10089;DHT22;51898;49.864;8.550;2023-02-01T05:29:14;5.40;99.90
10089;DHT22;51898;49.864;8.550;2023-02-01T05:32:16;5.40;99.90
10089;DHT22;51898;49.864;8.550;2023-02-01T05:35:23;5.40;99.90
10089;DHT22;51898;49.864;8.550;2023-02-01T05:38:25;5.40;99.90
10089;DHT22;51898;49.864;8.550;2023-02-01T05:41:26;5.40;99.90
10089;DHT22;51898;49.864;8.550;2023-02-01T05:44:28;5.40;99.90
10089;DHT22;51898;49.864;8.550;2023-02-01T05:47:30;5.50;99.90
10089;DHT22;51898;49.864;8.550;2023-02-01T05:50:31;5.50;99.90
10089;DHT22;51898;49.864;8.550;2023-02-01T05:53:33;5.50;99.90
10089;DHT22;51898;49.864;8.550;2023-02-01T05:56:34;5.50;99.90
10089;DHT22;51898;49.864;8.550;2023-02-01T05:59:36;5.50;99.90
10089;DHT22;51898;49.864;8.550;2023-02-01T06:02:42;5.50;99.90
10089;DHT22;51898;49.864;8.550;2023-02-01T06:05:45;5.50;99.90
10089;DHT22;51898;49.864;8.550;2023-02-01T06:08:46;5.50;99.90
10089;DHT22;51898;49.864;8.550;2023-02-01T06:11:48;5.40;99.90
10089;DHT22;51898;49.864;8.550;2023-02-01T06:14:50;5.40;99.90
10089;DHT22;51898;49.864;8.550;2023-02-01T06:17:51;5.30;99.90
10089;DHT22;51898;49.864;8.550;2023-02-01T06:20:57;5.30;99.90
10089;DHT22;51898;49.864;8.550;2023-02-01T06:24:01;5.20;99.90
10089;DHT22;51898;49.864;8.550;2023-02-01T06:27:03;5.20;99.90
10089;DHT22;51898;49.864;8.550;2023-02-01T06:30:05;5.20;99.90
10089;DHT22;51898;49.864;8.550;2023-02-01T06:33:07;5.20;99.90
10089;DHT22;51898;49.864;8.550;2023-02-01T06:36:10;5.20;99.90
10089;DHT22;51898;49.864;8.550;2023-02-01T06:39:13;5.20;99.90
10089;DHT22;51898;49.864;8.550;2023-02-01T06:42:17;5.20;99.90
10089;DHT22;51898;49.864;8.550;2023-02-01T06:45:19;5.20;99.90
10089;DHT22;51898;49.864;8.550;2023-02-01T06:48:20;5.20;99.90
10089;DHT22;51898;49.864;8.550;2023-02-01T06:51:26;5.30;99.90
10089;DHT22;51898;49.864;8.550;2023-02-01T06:54:29;5.40;99.90
10089;DHT22;51898;49.864;8.550;2023-02-01T06:57:34;5.30;99.90
10089;DHT22;51898;49.864;8.550;2023-02-01T07:00:37;5.30;99.90
10089;DHT22;51898;49.864;8.550;2023-02-01T07:03:39;5.20;99.90
10089;DHT22;51898;49.864;8.550;2023-02-01T07:06:40;5.10;99.90
10089;DHT22;51898;49.864;8.550;2023-02-01T07:09:42;5.00;99.90
10089;DHT22;51898;49.864;8.550;2023-02-01T07:12:44;4.90;99.90
10089;DHT22;51898;49.864;8.550;2023-02-01T07:15:45;4.90;99.90
10089;DHT22;51898;49.864;8.550;2023-02-01T07:18:51;4.80;99.90
10089;DHT22;51898;49.864;8.550;2023-02-01T07:21:53;4.70;99.90
10089;DHT22;51898;49.864;8.550;2023-02-01T07:24:55;4.70;99.90
10089;DHT22;51898;49.864;8.550;2023-02-01T07:27:57;4.60;99.90
10089;DHT22;51898;49.864;8.550;2023-02-01T07:31:03;4.60;99.90
10089;DHT22;51898;49.864;8.550;2023-02-01T07:34:05;4.50;99.90
10089;DHT22;51898;49.864;8.550;2023-02-01T07:37:07;4.50;99.90
10089;DHT22;51898;49.864;8.550;2023-02-01T07:40:09;4.50;99.90
10089;DHT22;51898;49.864;8.550;2023-02-01T07:43:13;4.50;99.90
10089;DHT22;51898;49.864;8.550;2023-02-01T07:46:14;4.50;99.90
10089;DHT22;51898;49.864;8.550;2023-02-01T07:49:17;4.50;99.90
10089;DHT22;51898;49.864;8.550;2023-02-01T07:52:21;4.50;99.90
10089;DHT22;51898;49.864;8.550;2023-02-01T07:55:22;4.50;99.90
10089;DHT22;51898;49.864;8.550;2023-02-01T07:58:25;4.50;99.90
10089;DHT22;51898;49.864;8.550;2023-02-01T08:01:28;4.60;99.90
10089;DHT22;51898;49.864;8.550;2023-02-01T08:04:30;4.70;99.90
10089;DHT22;51898;49.864;8.550;2023-02-01T08:07:31;4.80;99.90
10089;DHT22;51898;49.864;8.550;2023-02-01T08:10:33;4.80;99.90
10089;DHT22;51898;49.864;8.550;2023-02-01T08:13:36;4.90;99.90
10089;DHT22;51898;49.864;8.550;2023-02-01T08:16:38;5.00;99.90
10089;DHT22;51898;49.864;8.550;2023-02-01T08:19:40;5.10;99.90
10089;DHT22;51898;49.864;8.550;2023-02-01T08:22:42;5.10;99.90
10089;DHT22;51898;49.864;8.550;2023-02-01T08:25:44;5.20;99.90
10089;DHT22;51898;49.864;8.550;2023-02-01T08:28:49;5.30;99.90
10089;DHT22;51898;49.864;8.550;2023-02-01T08:31:50;5.30;99.90
10089;DHT22;51898;49.864;8.550;2023-02-01T08:34:53;5.30;99.90
10089;DHT22;51898;49.864;8.550;2023-02-01T08:37:55;5.30;99.90
10089;DHT22;51898;49.864;8.550;2023-02-01T08:40:57;5.40;99.90
10089;DHT22;51898;49.864;8.550;2023-02-01T08:43:58;5.50;99.90
10089;DHT22;51898;49.864;8.550;2023-02-01T08:47:00;5.70;99.90
10089;DHT22;51898;49.864;8.550;2023-02-01T08:50:02;5.70;99.90
10089;DHT22;51898;49.864;8.550;2023-02-01T08:53:04;5.80;99.90
10089;DHT22;51898;49.864;8.550;2023-02-01T08:56:06;5.80;99.90
10089;DHT22;51898;49.864;8.550;2023-02-01T08:59:08;5.80;99.90
10089;DHT22;51898;49.864;8.550;2023-02-01T09:02:16;5.80;99.90
10089;DHT22;51898;49.864;8.550;2023-02-01T09:05:18;5.80;99.90
10089;DHT22;51898;49.864;8.550;2023-02-01T09:08:23;5.90;99.90
10089;DHT22;51898;49.864;8.550;2023-02-01T09:11:25;6.10;99.90
10089;DHT22;51898;49.864;8.550;2023-02-01T09:14:27;6.20;99.90
10089;DHT22;51898;49.864;8.550;2023-02-01T09:17:29;6.30;99.90
10089;DHT22;51898;49.864;8.550;2023-02-01T09:20:31;6.40;99.90
10089;DHT22;51898;49.864;8.550;2023-02-01T09:23:33;6.40;99.90
10089;DHT22;51898;49.864;8.550;2023-02-01T09:26:36;6.50;99.90
10089;DHT22;51898;49.864;8.550;2023-02-01T09:29:38;6.60;99.90
10089;DHT22;51898;49.864;8.550;2023-02-01T09:32:39;6.70;99.90
10089;DHT22;51898;49.864;8.550;2023-02-01T09:35:41;6.80;99.90
10089;DHT22;51898;49.864;8.550;2023-02-01T09:38:43;6.80;99.90
10089;DHT22;51898;49.864;8.550;2023-02-01T09:45:20;6.70;99.90
10089;DHT22;51898;49.864;8.550;2023-02-01T09:48:37;6.80;99.90
10089;DHT22;51898;49.864;8.550;2023-02-01T09:51:47;6.80;99.90
10089;DHT22;51898;49.864;8.550;2023-02-01T09:54:54;6.80;99.90
10089;DHT22;51898;49.864;8.550;2023-02-01T09:58:24;6.80;99.90
10089;DHT22;51898;49.864;8.550;2023-02-01T10:01:28;6.80;99.90
10089;DHT22;51898;49.864;8.550;2023-02-01T10:04:31;6.80;99.90
10089;DHT22;51898;49.864;8.550;2023-02-01T10:07:57;6.80;99.90
10089;DHT22;51898;49.864;8.550;2023-02-01T10:11:30;6.80;99.90
10089;DHT22;51898;49.864;8.550;2023-02-01T10:15:16;6.80;99.90
10089;DHT22;51898;49.864;8.550;2023-02-01T10:24:59;7.00;99.90
10089;DHT22;51898;49.864;8.550;2023-02-01T10:28:13;7.10;99.90
10089;DHT22;51898;49.864;8.550;2023-02-01T10:31:17;7.20;99.90
10089;DHT22;51898;49.864;8.550;2023-02-01T10:34:27;7.20;99.90
10089;DHT22;51898;49.864;8.550;2023-02-01T10:37:34;7.30;99.90
10089;DHT22;51898;49.864;8.550;2023-02-01T10:40:37;7.20;99.90
10089;DHT22;51898;49.864;8.550;2023-02-01T10:43:39;7.20;99.90
10089;DHT22;51898;49.864;8.550;2023-02-01T10:46:41;7.10;99.90
10089;DHT22;51898;49.864;8.550;2023-02-01T10:49:57;7.10;99.90
10089;DHT22;51898;49.864;8.550;2023-02-01T10:53:05;7.00;99.90
10089;DHT22;51898;49.864;8.550;2023-02-01T10:56:11;7.00;99.90
10089;DHT22;51898;49.864;8.550;2023-02-01T10:59:19;7.00;99.90
10089;DHT22;51898;49.864;8.550;2023-02-01T11:02:31;7.10;99.90
10089;DHT22;51898;49.864;8.550;2023-02-01T11:05:44;7.00;99.90
10089;DHT22;51898;49.864;8.550;2023-02-01T11:08:49;7.10;99.90
10089;DHT22;51898;49.864;8.550;2023-02-01T11:14:57;7.00;99.90
10089;DHT22;51898;49.864;8.550;2023-02-01T11:18:18;7.00;99.90
10089;DHT22;51898;49.864;8.550;2023-02-01T11:21:20;7.00;99.90
10089;DHT22;51898;49.864;8.550;2023-02-01T11:24:33;7.00;99.90
10089;DHT22;51898;49.864;8.550;2023-02-01T11:27:37;7.00;99.90
10089;DHT22;51898;49.864;8.550;2023-02-01T11:30:56;7.00;99.90
10089;DHT22;51898;49.864;8.550;2023-02-01T11:37:17;7.00;99.90
10089;DHT22;51898;49.864;8.550;2023-02-01T11:40:35;7.10;99.90
10089;DHT22;51898;49.864;8.550;2023-02-01T11:43:37;7.10;99.90
10089;DHT22;51898;49.864;8.550;2023-02-01T11:46:50;7.00;99.90
10089;DHT22;51898;49.864;8.550;2023-02-01T11:50:03;7.00;99.90
10089;DHT22;51898;49.864;8.550;2023-02-01T11:53:46;7.00;99.90
10089;DHT22;51898;49.864;8.550;2023-02-01T12:04:02;7.00;99.90
10089;DHT22;51898;49.864;8.550;2023-02-01T12:07:34;7.00;99.90
10089;DHT22;51898;49.864;8.550;2023-02-01T12:14:30;7.10;99.90
10089;DHT22;51898;49.864;8.550;2023-02-01T12:18:11;7.10;99.90
10089;DHT22;51898;49.864;8.550;2023-02-01T12:35:18;7.20;99.90
10089;DHT22;51898;49.864;8.550;2023-02-01T12:38:39;7.20;99.90
10089;DHT22;51898;49.864;8.550;2023-02-01T12:51:39;7.30;99.90
10089;DHT22;51898;49.864;8.550;2023-02-01T12:54:57;7.20;99.90
10089;DHT22;51898;49.864;8.550;2023-02-01T12:58:17;7.20;99.90
10089;DHT22;51898;49.864;8.550;2023-02-01T13:05:17;7.20;99.90
10089;DHT22;51898;49.864;8.550;2023-02-01T13:08:36;7.30;99.90
10089;DHT22;51898;49.864;8.550;2023-02-01T13:11:42;7.30;99.90
10089;DHT22;51898;49.864;8.550;2023-02-01T13:14:52;7.20;99.90
10089;DHT22;51898;49.864;8.550;2023-02-01T13:17:59;7.20;99.90
10089;DHT22;51898;49.864;8.550;2023-02-01T13:21:07;7.30;99.90
10089;DHT22;51898;49.864;8.550;2023-02-01T13:24:29;7.20;99.90
10089;DHT22;51898;49.864;8.550;2023-02-01T13:27:32;7.20;99.90
10089;DHT22;51898;49.864;8.550;2023-02-01T13:37:12;7.20;99.90
10089;DHT22;51898;49.864;8.550;2023-02-01T13:40:39;7.20;99.90
10089;DHT22;51898;49.864;8.550;2023-02-01T13:43:45;7.20;99.90
10089;DHT22;51898;49.864;8.550;2023-02-01T13:46:51;7.20;99.90
10089;DHT22;51898;49.864;8.550;2023-02-01T13:49:58;7.20;99.90
10089;DHT22;51898;49.864;8.550;2023-02-01T13:53:14;7.20;99.90
10089;DHT22;51898;49.864;8.550;2023-02-01T13:56:19;7.20;99.90
10089;DHT22;51898;49.864;8.550;2023-02-01T14:08:46;7.30;99.90
10089;DHT22;51898;49.864;8.550;2023-02-01T14:12:43;7.40;99.90
10089;DHT22;51898;49.864;8.550;2023-02-01T14:19:28;7.30;99.90
10089;DHT22;51898;49.864;8.550;2023-02-01T14:22:34;7.30;99.90
10089;DHT22;51898;49.864;8.550;2023-02-01T14:25:36;7.30;99.90
10089;DHT22;51898;49.864;8.550;2023-02-01T14:28:45;7.30;99.90
10089;DHT22;51898;49.864;8.550;2023-02-01T14:31:54;7.30;99.90
10089;DHT22;51898;49.864;8.550;2023-02-01T14:35:07;7.30;99.90
10089;DHT22;51898;49.864;8.550;2023-02-01T14:38:10;7.40;99.90
10089;DHT22;51898;49.864;8.550;2023-02-01T14:41:24;7.40;99.90
10089;DHT22;51898;49.864;8.550;2023-02-01T14:44:33;7.40;99.90
10089;DHT22;51898;49.864;8.550;2023-02-01T14:47:34;7.50;99.90
10089;DHT22;51898;49.864;8.550;2023-02-01T14:50:39;7.40;99.90
10089;DHT22;51898;49.864;8.550;2023-02-01T14:53:44;7.50;99.90
10089;DHT22;51898;49.864;8.550;2023-02-01T14:56:48;7.50;99.90
10089;DHT22;51898;49.864;8.550;2023-02-01T14:59:59;7.50;99.90
10089;DHT22;51898;49.864;8.550;2023-02-01T15:03:39;7.50;99.90
10089;DHT22;51898;49.864;8.550;2023-02-01T15:06:57;7.50;99.90
10089;DHT22;51898;49.864;8.550;2023-02-01T15:10:00;7.50;99.90
10089;DHT22;51898;49.864;8.550;2023-02-01T15:13:01;7.60;99.90
10089;DHT22;51898;49.864;8.550;2023-02-01T15:16:15;7.60;99.90
10089;DHT22;51898;49.864;8.550;2023-02-01T15:19:16;7.60;99.90
10089;DHT22;51898;49.864;8.550;2023-02-01T15:22:18;7.70;99.90
10089;DHT22;51898;49.864;8.550;2023-02-01T15:25:32;7.60;99.90
10089;DHT22;51898;49.864;8.550;2023-02-01T15:28:35;7.60;99.90
10089;DHT22;51898;49.864;8.550;2023-02-01T15:31:46;7.70;99.90
10089;DHT22;51898;49.864;8.550;2023-02-01T15:34:49;7.70;99.90
10089;DHT22;51898;49.864;8.550;2023-02-01T15:37:51;7.70;99.90
10089;DHT22;51898;49.864;8.550;2023-02-01T15:41:06;7.60;99.90
10089;DHT22;51898;49.864;8.550;2023-02-01T15:44:39;7.60;99.90
10089;DHT22;51898;49.864;8.550;2023-02-01T15:47:49;7.50;99.90
10089;DHT22;51898;49.864;8.550;2023-02-01T15:50:53;7.50;99.90
10089;DHT22;51898;49.864;8.550;2023-02-01T15:54:05;7.50;99.90
10089;DHT22;51898;49.864;8.550;2023-02-01T15:57:09;7.50;99.90
10089;DHT22;51898;49.864;8.550;2023-02-01T16:00:29;7.40;99.90
10089;DHT22;51898;49.864;8.550;2023-02-01T16:03:38;7.40;99.90
10089;DHT22;51898;49.864;8.550;2023-02-01T16:06:54;7.40;99.90
10089;DHT22;51898;49.864;8.550;2023-02-01T16:09:59;7.40;99.90
10089;DHT22;51898;49.864;8.550;2023-02-01T16:13:02;7.40;99.90
10089;DHT22;51898;49.864;8.550;2023-02-01T16:16:04;7.40;99.90
10089;DHT22;51898;49.864;8.550;2023-02-01T16:19:09;7.30;99.90
10089;DHT22;51898;49.864;8.550;2023-02-01T16:22:11;7.30;99.90
10089;DHT22;51898;49.864;8.550;2023-02-01T16:25:12;7.30;99.90
10089;DHT22;51898;49.864;8.550;2023-02-01T16:28:14;7.20;99.90
10089;DHT22;51898;49.864;8.550;2023-02-01T16:31:17;7.20;99.90
10089;DHT22;51898;49.864;8.550;2023-02-01T16:34:22;7.20;99.90
10089;DHT22;51898;49.864;8.550;2023-02-01T16:37:25;7.10;99.90
10089;DHT22;51898;49.864;8.550;2023-02-01T16:40:31;7.10;99.90
10089;DHT22;51898;49.864;8.550;2023-02-01T16:43:33;7.00;99.90
10089;DHT22;51898;49.864;8.550;2023-02-01T16:46:39;7.10;99.90
10089;DHT22;51898;49.864;8.550;2023-02-01T16:49:42;7.10;99.90
10089;DHT22;51898;49.864;8.550;2023-02-01T16:52:44;7.10;99.90
10089;DHT22;51898;49.864;8.550;2023-02-01T16:55:46;7.10;99.90
10089;DHT22;51898;49.864;8.550;2023-02-01T16:58:49;7.00;99.90
10089;DHT22;51898;49.864;8.550;2023-02-01T17:01:51;7.00;99.90
10089;DHT22;51898;49.864;8.550;2023-02-01T17:04:52;6.90;99.90
10089;DHT22;51898;49.864;8.550;2023-02-01T17:07:56;6.90;99.90
10089;DHT22;51898;49.864;8.550;2023-02-01T17:10:59;6.80;99.90
10089;DHT22;51898;49.864;8.550;2023-02-01T17:14:18;6.80;99.90
10089;DHT22;51898;49.864;8.550;2023-02-01T17:17:20;6.70;99.90
10089;DHT22;51898;49.864;8.550;2023-02-01T17:20:38;6.70;99.90
10089;DHT22;51898;49.864;8.550;2023-02-01T17:23:40;6.60;99.90
10089;DHT22;51898;49.864;8.550;2023-02-01T17:26:42;6.60;99.90
10089;DHT22;51898;49.864;8.550;2023-02-01T17:29:44;6.50;99.90
10089;DHT22;51898;49.864;8.550;2023-02-01T17:32:47;6.40;99.90
10089;DHT22;51898;49.864;8.550;2023-02-01T17:35:49;6.40;99.90
10089;DHT22;51898;49.864;8.550;2023-02-01T17:38:52;6.30;99.90
10089;DHT22;51898;49.864;8.550;2023-02-01T17:42:08;6.30;99.90
10089;DHT22;51898;49.864;8.550;2023-02-01T17:45:16;6.30;99.90
10089;DHT22;51898;49.864;8.550;2023-02-01T17:48:20;6.20;99.90
10089;DHT22;51898;49.864;8.550;2023-02-01T17:51:25;6.20;99.90
10089;DHT22;51898;49.864;8.550;2023-02-01T17:54:30;6.20;99.90
10089;DHT22;51898;49.864;8.550;2023-02-01T17:57:32;6.10;99.90
10089;DHT22;51898;49.864;8.550;2023-02-01T18:00:34;6.10;99.90
10089;DHT22;51898;49.864;8.550;2023-02-01T18:03:39;6.10;99.90
10089;DHT22;51898;49.864;8.550;2023-02-01T18:06:41;6.10;99.90
10089;DHT22;51898;49.864;8.550;2023-02-01T18:09:42;6.10;99.90
10089;DHT22;51898;49.864;8.550;2023-02-01T18:12:44;6.10;99.90
10089;DHT22;51898;49.864;8.550;2023-02-01T18:15:46;6.00;99.90
10089;DHT22;51898;49.864;8.550;2023-02-01T18:18:49;5.90;99.90
10089;DHT22;51898;49.864;8.550;2023-02-01T18:21:51;5.90;99.90
10089;DHT22;51898;49.864;8.550;2023-02-01T18:24:54;6.00;99.90
10089;DHT22;51898;49.864;8.550;2023-02-01T18:27:56;6.00;99.90
10089;DHT22;51898;49.864;8.550;2023-02-01T18:30:58;6.00;99.90
10089;DHT22;51898;49.864;8.550;2023-02-01T18:34:00;6.00;99.90
10089;DHT22;51898;49.864;8.550;2023-02-01T18:37:04;5.90;99.90
10089;DHT22;51898;49.864;8.550;2023-02-01T18:40:06;5.90;99.90
10089;DHT22;51898;49.864;8.550;2023-02-01T18:43:14;5.90;99.90
10089;DHT22;51898;49.864;8.550;2023-02-01T18:46:16;5.90;99.90
10089;DHT22;51898;49.864;8.550;2023-02-01T18:49:18;6.00;99.90
10089;DHT22;51898;49.864;8.550;2023-02-01T18:52:20;6.10;99.90
10089;DHT22;51898;49.864;8.550;2023-02-01T18:55:22;6.10;99.90
10089;DHT22;51898;49.864;8.550;2023-02-01T18:58:27;6.20;99.90
10089;DHT22;51898;49.864;8.550;2023-02-01T19:01:29;6.20;99.90
10089;DHT22;51898;49.864;8.550;2023-02-01T19:04:30;6.30;99.90
10089;DHT22;51898;49.864;8.550;2023-02-01T19:07:33;6.30;99.90
10089;DHT22;51898;49.864;8.550;2023-02-01T19:10:35;6.30;99.90
10089;DHT22;51898;49.864;8.550;2023-02-01T19:13:39;6.30;99.90
10089;DHT22;51898;49.864;8.550;2023-02-01T19:16:41;6.40;99.90
10089;DHT22;51898;49.864;8.550;2023-02-01T19:19:43;6.30;99.90
10089;DHT22;51898;49.864;8.550;2023-02-01T19:22:46;6.40;99.90
10089;DHT22;51898;49.864;8.550;2023-02-01T19:25:48;6.40;99.90
10089;DHT22;51898;49.864;8.550;2023-02-01T19:28:50;6.40;99.90
10089;DHT22;51898;49.864;8.550;2023-02-01T19:31:51;6.40;99.90
10089;DHT22;51898;49.864;8.550;2023-02-01T19:34:53;6.40;99.90
10089;DHT22;51898;49.864;8.550;2023-02-01T19:37:55;6.40;99.90
10089;DHT22;51898;49.864;8.550;2023-02-01T19:40:57;6.40;99.90
10089;DHT22;51898;49.864;8.550;2023-02-01T19:43:58;6.40;99.90
10089;DHT22;51898;49.864;8.550;2023-02-01T19:47:00;6.40;99.90
10089;DHT22;51898;49.864;8.550;2023-02-01T19:50:03;6.30;99.90
10089;DHT22;51898;49.864;8.550;2023-02-01T19:53:07;6.30;99.90
10089;DHT22;51898;49.864;8.550;2023-02-01T19:56:09;6.40;99.90
10089;DHT22;51898;49.864;8.550;2023-02-01T19:59:13;6.30;99.90
10089;DHT22;51898;49.864;8.550;2023-02-01T20:02:15;6.30;99.90
10089;DHT22;51898;49.864;8.550;2023-02-01T20:05:19;6.30;99.90
10089;DHT22;51898;49.864;8.550;2023-02-01T20:08:23;6.30;99.90
10089;DHT22;51898;49.864;8.550;2023-02-01T20:11:25;6.30;99.90
10089;DHT22;51898;49.864;8.550;2023-02-01T20:14:27;6.20;99.90
10089;DHT22;51898;49.864;8.550;2023-02-01T20:17:29;6.20;99.90
10089;DHT22;51898;49.864;8.550;2023-02-01T20:20:31;6.30;99.90
10089;DHT22;51898;49.864;8.550;2023-02-01T20:23:32;6.40;99.90
10089;DHT22;51898;49.864;8.550;2023-02-01T20:26:34;6.30;99.90
10089;DHT22;51898;49.864;8.550;2023-02-01T20:29:36;6.40;99.90
10089;DHT22;51898;49.864;8.550;2023-02-01T20:32:38;6.40;99.90
10089;DHT22;51898;49.864;8.550;2023-02-01T20:35:43;6.40;99.90
10089;DHT22;51898;49.864;8.550;2023-02-01T20:38:46;6.40;99.90
10089;DHT22;51898;49.864;8.550;2023-02-01T20:41:49;6.40;99.90
10089;DHT22;51898;49.864;8.550;2023-02-01T20:44:51;6.40;99.90
10089;DHT22;51898;49.864;8.550;2023-02-01T20:47:53;6.50;99.90
10089;DHT22;51898;49.864;8.550;2023-02-01T20:50:56;6.50;99.90
10089;DHT22;51898;49.864;8.550;2023-02-01T20:53:59;6.50;99.90
10089;DHT22;51898;49.864;8.550;2023-02-01T20:57:01;6.50;99.90
10089;DHT22;51898;49.864;8.550;2023-02-01T21:00:04;6.50;99.90
10089;DHT22;51898;49.864;8.550;2023-02-01T21:03:13;6.50;99.90
10089;DHT22;51898;49.864;8.550;2023-02-01T21:06:14;6.40;99.90
10089;DHT22;51898;49.864;8.550;2023-02-01T21:09:16;6.40;99.90
10089;DHT22;51898;49.864;8.550;2023-02-01T21:12:19;6.40;99.90
10089;DHT22;51898;49.864;8.550;2023-02-01T21:15:21;6.40;99.90
10089;DHT22;51898;49.864;8.550;2023-02-01T21:18:27;6.40;99.90
10089;DHT22;51898;49.864;8.550;2023-02-01T21:21:29;6.40;99.90